Flight Track Log - Related Links

Times and Time Zones

All times are in EDT time to prevent confusion due to time zone crossing. See the FLG4208 flight status page for this flight to view local times or setup timezone preferences in your user account.

Time Position Orientation Groundspeed Altitude Reporting Facility
EDT Latitude Longitude Course Direction KTS MPH feet Rate Location/Type
Sun 12:12:11 PM 42.1453 -85.5181 163° South 187 215 5,200  Level Chicago Center
Sun 12:13:00 PM 42.1691 -85.2980 103° East  Level FlightAware Approximate
Sun 12:13:13 PM 42.1306 -85.4250 102° East 250 288 7,500  Level Chicago Center
Sun 12:14:00 PM 42.1582 -85.2105 106° East  Level FlightAware Approximate
Sun 12:14:14 PM 42.1189 -85.3103 98° East 277 319 10,400  Level Chicago Center
Sun 12:15:00 PM 42.1399 -85.1246 106° East  Level FlightAware Approximate
Sun 12:15:16 PM 42.1092 -85.1936 96° East 298 343 11,000  Level Cleveland Center
Sun 12:16:00 PM 42.1177 -85.0214 106° East  Level FlightAware Approximate
Sun 12:16:16 PM 42.0958 -85.0556 97° East 341 392 11,100  Level Cleveland Center
Sun 12:17:00 PM 42.0856 -84.9279 105° East  Level FlightAware Approximate
Sun 12:17:16 PM 42.0803 -84.9200 99° East 357 411 11,100  Level Cleveland Center
Sun 12:18:16 PM 42.0664 -84.7875 98° East 357 411 11,100  Level Cleveland Center
Sun 12:19:16 PM 42.0142 -84.6722 121° Southeast 348 400 11,100  Level Cleveland Center
Sun 12:20:16 PM 41.9747 -84.5497 113° Southeast 348 400 11,100  Level Cleveland Center
Sun 12:21:16 PM 41.9414 -84.4275 110° East 348 400 11,100  Level Cleveland Center
Sun 12:22:10 PM 41.9017 -84.3022 113° Southeast 355 409 11,100  Level Cleveland Center
Sun 12:22:41 PM 41.8847 -84.2428 111° Southeast 356 410 11,100  Level Cleveland Center
Sun 12:23:16 PM 41.8622 -84.1689 112° Southeast 357 411 11,100  Level Cleveland Center
Sun 12:23:43 PM 41.8453 -84.1122 112° Southeast 357 411 11,100  Level Cleveland Center
Sun 12:24:16 PM 41.8369 -84.0419 99° East 357 411 11,100  Level Cleveland Center
Sun 12:24:49 PM 41.8639 -83.9794 60° Northeast 348 400 11,100  Level Cleveland Center
Sun 12:25:16 PM 41.8861 -83.9331 57° Northeast 314 361 11,100  Level Cleveland Center
Sun 12:25:51 PM 41.9233 -83.8708 51° Northeast 348 400 11,100  Level Cleveland Center
Sun 12:26:16 PM 41.9453 -83.8328 52° Northeast 322 371 11,100  Level Cleveland Center
Sun 12:26:52 PM 41.9864 -83.7764 46° Northeast 346 398 11,100  Level Cleveland Center
Sun 12:27:16 PM 42.0103 -83.7411 48° Northeast 327 376 11,100 -71 Level Cleveland Center
Sun 12:28:16 PM 42.0708 -83.6575 46° Northeast 327 376 11,000  Descending Cleveland Center
Sun 12:28:54 PM 42.1014 -83.6142 46° Northeast 246 283 11,100 95 Climbing Cleveland Center
Sun 12:29:19 PM 42.1261 -83.5986 25° Northeast 235 270 11,100  Level FAA TRACON SMA TRACON (SMA)
Sun 12:29:39 PM 42.1481 -83.5886 19° North 244 281 11,100  Level FAA TRACON SMA TRACON (SMA)
Sun 12:30:00 PM 42.1694 -83.5786 19° North 245 282 11,100  Level FAA TRACON SMA TRACON (SMA)
Sun 12:30:20 PM 42.1944 -83.5669 19° North 244 281 11,100  Level FAA TRACON SMA TRACON (SMA)
Sun 12:30:40 PM 42.2144 -83.5567 21° North 248 285 11,100 -154 Level FAA TRACON SMA TRACON (SMA)
Sun 12:30:59 PM 42.2336 -83.5436 27° Northeast 247 284 11,000 -769 Descending FAA TRACON SMA TRACON (SMA)
Sun 12:31:19 PM 42.2508 -83.5328 25° Northeast 242 278 10,600 -1,500 Descending FAA TRACON SMA TRACON (SMA)
Sun 12:31:39 PM 42.2756 -83.5164 26° Northeast 239 275 10,000 -1,650 Descending FAA TRACON SMA TRACON (SMA)
Sun 12:31:59 PM 42.2939 -83.5047 25° Northeast 236 272 9,500 -1,800 Descending FAA TRACON SMA TRACON (SMA)
Sun 12:32:19 PM 42.3122 -83.4942 23° Northeast 234 269 8,800 -2,100 Descending FAA TRACON SMA TRACON (SMA)
Sun 12:32:39 PM 42.3344 -83.4811 23° Northeast 227 261 8,100 -1,950 Descending FAA TRACON SMA TRACON (SMA)
Sun 12:32:59 PM 42.3522 -83.4711 23° Northeast 226 260 7,500 -2,100 Descending FAA TRACON SMA TRACON (SMA)
Sun 12:33:19 PM 42.3733 -83.4600 21° North 224 258 6,700 -2,100 Descending FAA TRACON SMA TRACON (SMA)
Sun 12:33:39 PM 42.3911 -83.4489 25° Northeast 221 254 6,100 -1,800 Descending FAA TRACON SMA TRACON (SMA)
Sun 12:33:59 PM 42.4078 -83.4375 27° Northeast 218 251 5,500 -2,049 Descending FAA TRACON SMA TRACON (SMA)
Sun 12:34:20 PM 42.4231 -83.4153 47° Northeast 204 235 4,700 -1,902 Descending FAA TRACON SMA TRACON (SMA)
Sun 12:34:40 PM 42.4236 -83.3922 88° East 196 226 4,200 -900 Descending FAA TRACON SMA TRACON (SMA)
Sun 12:35:00 PM 42.4231 -83.3719 92° East 180 207 4,100 -300 Descending FAA TRACON SMA TRACON (SMA)
Sun 12:35:20 PM 42.4253 -83.3461 83° East 169 194 4,000  Descending FAA TRACON SMA TRACON (SMA)
Sun 12:35:39 PM 42.4219 -83.3275 104° East 168 193 4,100 154 Climbing FAA TRACON SMA TRACON (SMA)
Sun 12:35:59 PM 42.4172 -83.3094 110° East 165 190 4,100 -150 Level FAA TRACON SMA TRACON (SMA)
Sun 12:36:19 PM 42.4094 -83.2881 116° Southeast 176 203 4,000 -450 Descending FAA TRACON SMA TRACON (SMA)
Sun 12:36:39 PM 42.3958 -83.2833 166° South 176 203 3,800 -900 Descending FAA TRACON SMA TRACON (SMA)
Sun 12:36:59 PM 42.3786 -83.2839 181° South 172 198 3,400 -900 Descending FAA TRACON SMA TRACON (SMA)
Sun 12:37:19 PM 42.3647 -83.2842 181° South 171 197 3,200 -600 Descending FAA TRACON SMA TRACON (SMA)
Sun 12:37:39 PM 42.3475 -83.2853 183° South 166 191 3,000 -300 Descending FAA TRACON SMA TRACON (SMA)
Sun 12:37:59 PM 42.3311 -83.2897 191° South 166 191 3,000  Level FAA TRACON SMA TRACON (SMA)
Sun 12:38:19 PM 42.3183 -83.2978 205° Southwest 169 194 3,000  Level FAA TRACON SMA TRACON (SMA)

Login

Don't have an account? Register now (free) for customized features, flight alerts, and more!